sensor_id;sensor_type;location;lat;lon;timestamp;temperature;humidity
15115;DHT22;7658;51.456;7.622;2022-10-16T00:00:56;12.40;99.90
15115;DHT22;7658;51.456;7.622;2022-10-16T00:03:22;12.40;99.90
15115;DHT22;7658;51.456;7.622;2022-10-16T00:05:48;12.40;99.90
15115;DHT22;7658;51.456;7.622;2022-10-16T00:08:14;12.30;99.90
15115;DHT22;7658;51.456;7.622;2022-10-16T00:10:40;12.30;99.90
15115;DHT22;7658;51.456;7.622;2022-10-16T00:13:06;12.30;99.90
15115;DHT22;7658;51.456;7.622;2022-10-16T00:15:36;12.30;99.90
15115;DHT22;7658;51.456;7.622;2022-10-16T00:18:05;12.30;99.90
15115;DHT22;7658;51.456;7.622;2022-10-16T00:20:34;12.30;99.90
15115;DHT22;7658;51.456;7.622;2022-10-16T00:23:00;12.30;99.90
15115;DHT22;7658;51.456;7.622;2022-10-16T00:25:26;12.20;99.90
15115;DHT22;7658;51.456;7.622;2022-10-16T00:27:51;12.20;99.90
15115;DHT22;7658;51.456;7.622;2022-10-16T00:30:17;12.20;99.90
15115;DHT22;7658;51.456;7.622;2022-10-16T00:32:43;12.20;99.90
15115;DHT22;7658;51.456;7.622;2022-10-16T00:35:09;12.10;99.90
15115;DHT22;7658;51.456;7.622;2022-10-16T00:37:34;12.10;99.90
15115;DHT22;7658;51.456;7.622;2022-10-16T00:40:00;12.20;99.90
15115;DHT22;7658;51.456;7.622;2022-10-16T00:42:26;12.10;99.90
15115;DHT22;7658;51.456;7.622;2022-10-16T00:44:54;12.10;99.90
15115;DHT22;7658;51.456;7.622;2022-10-16T00:47:38;12.10;99.90
15115;DHT22;7658;51.456;7.622;2022-10-16T00:50:30;12.00;99.90
15115;DHT22;7658;51.456;7.622;2022-10-16T00:52:58;12.10;99.90
15115;DHT22;7658;51.456;7.622;2022-10-16T00:55:24;12.10;99.90
15115;DHT22;7658;51.456;7.622;2022-10-16T00:57:50;12.00;99.90
15115;DHT22;7658;51.456;7.622;2022-10-16T01:00:20;12.00;99.90
15115;DHT22;7658;51.456;7.622;2022-10-16T01:02:54;12.00;99.90
15115;DHT22;7658;51.456;7.622;2022-10-16T01:05:22;12.10;99.90
15115;DHT22;7658;51.456;7.622;2022-10-16T01:08:09;12.10;99.90
15115;DHT22;7658;51.456;7.622;2022-10-16T01:13:11;12.10;99.90
15115;DHT22;7658;51.456;7.622;2022-10-16T01:15:51;12.00;99.90
15115;DHT22;7658;51.456;7.622;2022-10-16T01:21:08;12.00;99.90
15115;DHT22;7658;51.456;7.622;2022-10-16T01:24:12;12.00;99.90
15115;DHT22;7658;51.456;7.622;2022-10-16T01:27:15;12.00;99.90
15115;DHT22;7658;51.456;7.622;2022-10-16T01:30:33;12.00;99.90
15115;DHT22;7658;51.456;7.622;2022-10-16T01:32:45;11.90;99.90
15115;DHT22;7658;51.456;7.622;2022-10-16T01:35:29;11.90;99.90
15115;DHT22;7658;51.456;7.622;2022-10-16T01:40:38;11.90;99.90
15115;DHT22;7658;51.456;7.622;2022-10-16T01:43:17;12.00;99.90
15115;DHT22;7658;51.456;7.622;2022-10-16T01:45:45;11.90;99.90
15115;DHT22;7658;51.456;7.622;2022-10-16T01:48:19;11.90;99.90
15115;DHT22;7658;51.456;7.622;2022-10-16T01:51:11;11.90;99.90
15115;DHT22;7658;51.456;7.622;2022-10-16T01:53:39;11.90;99.90
15115;DHT22;7658;51.456;7.622;2022-10-16T01:56:09;11.90;99.90
15115;DHT22;7658;51.456;7.622;2022-10-16T01:58:42;11.90;99.90
15115;DHT22;7658;51.456;7.622;2022-10-16T02:01:11;11.90;99.90
15115;DHT22;7658;51.456;7.622;2022-10-16T02:03:40;11.90;99.90
15115;DHT22;7658;51.456;7.622;2022-10-16T02:06:08;11.80;99.90
15115;DHT22;7658;51.456;7.622;2022-10-16T02:08:35;11.90;99.90
15115;DHT22;7658;51.456;7.622;2022-10-16T02:11:01;12.00;99.90
15115;DHT22;7658;51.456;7.622;2022-10-16T02:15:56;12.10;99.90
15115;DHT22;7658;51.456;7.622;2022-10-16T02:18:21;12.10;99.90
15115;DHT22;7658;51.456;7.622;2022-10-16T02:21:05;12.20;99.90
15115;DHT22;7658;51.456;7.622;2022-10-16T02:23:43;12.20;99.90
15115;DHT22;7658;51.456;7.622;2022-10-16T02:26:15;12.20;99.90
15115;DHT22;7658;51.456;7.622;2022-10-16T02:28:50;12.30;99.90
15115;DHT22;7658;51.456;7.622;2022-10-16T02:31:25;12.30;99.90
15115;DHT22;7658;51.456;7.622;2022-10-16T02:33:55;12.30;99.90
15115;DHT22;7658;51.456;7.622;2022-10-16T02:36:22;12.40;99.90
15115;DHT22;7658;51.456;7.622;2022-10-16T02:38:48;12.40;99.90
15115;DHT22;7658;51.456;7.622;2022-10-16T02:41:14;12.40;99.90
15115;DHT22;7658;51.456;7.622;2022-10-16T02:43:40;12.40;99.90
15115;DHT22;7658;51.456;7.622;2022-10-16T02:46:06;12.40;99.90
15115;DHT22;7658;51.456;7.622;2022-10-16T02:48:31;12.40;99.90
15115;DHT22;7658;51.456;7.622;2022-10-16T02:50:57;12.40;99.90
15115;DHT22;7658;51.456;7.622;2022-10-16T02:53:23;12.30;99.90
15115;DHT22;7658;51.456;7.622;2022-10-16T02:55:49;12.30;99.90
15115;DHT22;7658;51.456;7.622;2022-10-16T02:58:14;12.20;99.90
15115;DHT22;7658;51.456;7.622;2022-10-16T03:00:41;12.20;99.90
15115;DHT22;7658;51.456;7.622;2022-10-16T03:03:07;12.10;99.90
15115;DHT22;7658;51.456;7.622;2022-10-16T03:05:33;12.10;99.90
15115;DHT22;7658;51.456;7.622;2022-10-16T03:07:58;12.10;99.90
15115;DHT22;7658;51.456;7.622;2022-10-16T03:10:26;12.10;99.90
15115;DHT22;7658;51.456;7.622;2022-10-16T03:12:52;12.10;99.90
15115;DHT22;7658;51.456;7.622;2022-10-16T03:15:18;12.10;99.90
15115;DHT22;7658;51.456;7.622;2022-10-16T03:17:43;12.10;99.90
15115;DHT22;7658;51.456;7.622;2022-10-16T03:20:10;12.10;99.90
15115;DHT22;7658;51.456;7.622;2022-10-16T03:22:35;12.20;99.90
15115;DHT22;7658;51.456;7.622;2022-10-16T03:25:01;12.20;99.90
15115;DHT22;7658;51.456;7.622;2022-10-16T03:27:27;12.20;99.90
15115;DHT22;7658;51.456;7.622;2022-10-16T03:29:53;12.30;99.90
15115;DHT22;7658;51.456;7.622;2022-10-16T03:32:18;12.30;99.90
15115;DHT22;7658;51.456;7.622;2022-10-16T03:34:45;12.30;99.90
15115;DHT22;7658;51.456;7.622;2022-10-16T03:37:11;12.40;99.90
15115;DHT22;7658;51.456;7.622;2022-10-16T03:39:37;12.30;99.90
15115;DHT22;7658;51.456;7.622;2022-10-16T03:42:02;12.40;99.90
15115;DHT22;7658;51.456;7.622;2022-10-16T03:44:28;12.40;99.90
15115;DHT22;7658;51.456;7.622;2022-10-16T03:46:54;12.50;99.90
15115;DHT22;7658;51.456;7.622;2022-10-16T03:49:19;12.60;99.90
15115;DHT22;7658;51.456;7.622;2022-10-16T03:51:45;12.60;99.90
15115;DHT22;7658;51.456;7.622;2022-10-16T03:54:11;12.70;99.90
15115;DHT22;7658;51.456;7.622;2022-10-16T03:56:37;12.70;99.90
15115;DHT22;7658;51.456;7.622;2022-10-16T03:59:02;12.80;99.90
15115;DHT22;7658;51.456;7.622;2022-10-16T04:01:28;12.80;99.90
15115;DHT22;7658;51.456;7.622;2022-10-16T04:03:54;12.70;99.90
15115;DHT22;7658;51.456;7.622;2022-10-16T04:06:19;12.70;99.90
15115;DHT22;7658;51.456;7.622;2022-10-16T04:08:45;12.70;99.90
15115;DHT22;7658;51.456;7.622;2022-10-16T04:11:11;12.70;99.90
15115;DHT22;7658;51.456;7.622;2022-10-16T04:13:37;12.60;99.90
15115;DHT22;7658;51.456;7.622;2022-10-16T04:16:03;12.60;99.90
15115;DHT22;7658;51.456;7.622;2022-10-16T04:18:29;12.50;99.90
15115;DHT22;7658;51.456;7.622;2022-10-16T04:20:54;12.50;99.90
15115;DHT22;7658;51.456;7.622;2022-10-16T04:23:21;12.50;99.90
15115;DHT22;7658;51.456;7.622;2022-10-16T04:25:48;12.50;99.90
15115;DHT22;7658;51.456;7.622;2022-10-16T04:28:14;12.40;99.90
15115;DHT22;7658;51.456;7.622;2022-10-16T04:30:40;12.50;99.90
15115;DHT22;7658;51.456;7.622;2022-10-16T04:33:05;12.50;99.90
15115;DHT22;7658;51.456;7.622;2022-10-16T04:35:31;12.40;99.90
15115;DHT22;7658;51.456;7.622;2022-10-16T04:37:58;12.50;99.90
15115;DHT22;7658;51.456;7.622;2022-10-16T04:40:24;12.50;99.90
15115;DHT22;7658;51.456;7.622;2022-10-16T04:42:49;12.50;99.90
15115;DHT22;7658;51.456;7.622;2022-10-16T04:45:15;12.50;99.90
15115;DHT22;7658;51.456;7.622;2022-10-16T04:47:41;12.50;99.90
15115;DHT22;7658;51.456;7.622;2022-10-16T04:50:07;12.50;99.90
15115;DHT22;7658;51.456;7.622;2022-10-16T04:52:33;12.50;99.90
15115;DHT22;7658;51.456;7.622;2022-10-16T04:54:59;12.50;99.90
15115;DHT22;7658;51.456;7.622;2022-10-16T04:57:28;12.60;99.90
15115;DHT22;7658;51.456;7.622;2022-10-16T04:59:54;12.60;99.90
15115;DHT22;7658;51.456;7.622;2022-10-16T05:02:19;12.60;99.90
15115;DHT22;7658;51.456;7.622;2022-10-16T05:04:45;12.60;99.90
15115;DHT22;7658;51.456;7.622;2022-10-16T05:07:11;12.60;99.90
15115;DHT22;7658;51.456;7.622;2022-10-16T05:09:37;12.60;99.90
15115;DHT22;7658;51.456;7.622;2022-10-16T05:12:03;12.60;99.90
15115;DHT22;7658;51.456;7.622;2022-10-16T05:14:29;12.60;99.90
15115;DHT22;7658;51.456;7.622;2022-10-16T05:16:55;12.60;99.90
15115;DHT22;7658;51.456;7.622;2022-10-16T05:19:20;12.50;99.90
15115;DHT22;7658;51.456;7.622;2022-10-16T05:21:46;12.50;99.90
15115;DHT22;7658;51.456;7.622;2022-10-16T05:24:12;12.50;99.90
15115;DHT22;7658;51.456;7.622;2022-10-16T05:26:38;12.50;99.90
15115;DHT22;7658;51.456;7.622;2022-10-16T05:29:04;12.50;99.90
15115;DHT22;7658;51.456;7.622;2022-10-16T05:31:29;12.50;99.90
15115;DHT22;7658;51.456;7.622;2022-10-16T05:34:01;12.40;99.90
15115;DHT22;7658;51.456;7.622;2022-10-16T05:36:27;12.40;99.90
15115;DHT22;7658;51.456;7.622;2022-10-16T05:38:53;12.40;99.90
15115;DHT22;7658;51.456;7.622;2022-10-16T05:41:19;12.30;99.90
15115;DHT22;7658;51.456;7.622;2022-10-16T05:43:47;12.30;99.90
15115;DHT22;7658;51.456;7.622;2022-10-16T05:46:14;12.30;99.90
15115;DHT22;7658;51.456;7.622;2022-10-16T05:48:40;12.30;99.90
15115;DHT22;7658;51.456;7.622;2022-10-16T05:51:09;12.30;99.90
15115;DHT22;7658;51.456;7.622;2022-10-16T05:53:36;12.30;99.90
15115;DHT22;7658;51.456;7.622;2022-10-16T05:56:03;12.30;99.90
15115;DHT22;7658;51.456;7.622;2022-10-16T05:58:34;12.30;99.90
15115;DHT22;7658;51.456;7.622;2022-10-16T06:01:06;12.30;99.90
15115;DHT22;7658;51.456;7.622;2022-10-16T06:03:33;12.30;99.90
15115;DHT22;7658;51.456;7.622;2022-10-16T06:06:06;12.30;99.90
15115;DHT22;7658;51.456;7.622;2022-10-16T06:08:32;12.40;99.90
15115;DHT22;7658;51.456;7.622;2022-10-16T06:11:03;12.40;99.90
15115;DHT22;7658;51.456;7.622;2022-10-16T06:13:29;12.40;99.90
15115;DHT22;7658;51.456;7.622;2022-10-16T06:15:57;12.40;99.90
15115;DHT22;7658;51.456;7.622;2022-10-16T06:18:24;12.50;99.90
15115;DHT22;7658;51.456;7.622;2022-10-16T06:20:50;12.50;99.90
15115;DHT22;7658;51.456;7.622;2022-10-16T06:23:16;12.50;99.90
15115;DHT22;7658;51.456;7.622;2022-10-16T06:25:42;12.60;99.90
15115;DHT22;7658;51.456;7.622;2022-10-16T06:28:08;12.60;99.90
15115;DHT22;7658;51.456;7.622;2022-10-16T06:30:34;12.60;99.90
15115;DHT22;7658;51.456;7.622;2022-10-16T06:33:00;12.70;99.90
15115;DHT22;7658;51.456;7.622;2022-10-16T06:35:26;12.70;99.90
15115;DHT22;7658;51.456;7.622;2022-10-16T06:37:53;12.70;99.90
15115;DHT22;7658;51.456;7.622;2022-10-16T06:40:19;12.70;99.90
15115;DHT22;7658;51.456;7.622;2022-10-16T06:42:44;12.70;99.90
15115;DHT22;7658;51.456;7.622;2022-10-16T06:45:10;12.80;99.90
15115;DHT22;7658;51.456;7.622;2022-10-16T06:47:36;12.80;99.90
15115;DHT22;7658;51.456;7.622;2022-10-16T06:50:03;12.80;99.90
15115;DHT22;7658;51.456;7.622;2022-10-16T06:52:29;12.90;99.90
15115;DHT22;7658;51.456;7.622;2022-10-16T06:54:55;12.90;99.90
15115;DHT22;7658;51.456;7.622;2022-10-16T06:57:20;13.00;99.90
15115;DHT22;7658;51.456;7.622;2022-10-16T06:59:46;13.10;99.90
15115;DHT22;7658;51.456;7.622;2022-10-16T07:02:12;13.10;99.90
15115;DHT22;7658;51.456;7.622;2022-10-16T07:04:37;13.20;99.90
15115;DHT22;7658;51.456;7.622;2022-10-16T07:07:03;13.20;99.90
15115;DHT22;7658;51.456;7.622;2022-10-16T07:09:29;13.30;99.90
15115;DHT22;7658;51.456;7.622;2022-10-16T07:11:55;13.30;99.90
15115;DHT22;7658;51.456;7.622;2022-10-16T07:14:21;13.30;99.90
15115;DHT22;7658;51.456;7.622;2022-10-16T07:16:48;13.40;99.90
15115;DHT22;7658;51.456;7.622;2022-10-16T07:19:14;13.40;99.90
15115;DHT22;7658;51.456;7.622;2022-10-16T07:21:42;13.50;99.90
15115;DHT22;7658;51.456;7.622;2022-10-16T07:24:14;13.70;99.90
15115;DHT22;7658;51.456;7.622;2022-10-16T07:26:41;13.80;99.90
15115;DHT22;7658;51.456;7.622;2022-10-16T07:29:16;13.90;99.90
15115;DHT22;7658;51.456;7.622;2022-10-16T07:31:44;14.00;99.90
15115;DHT22;7658;51.456;7.622;2022-10-16T07:34:12;14.20;99.90
15115;DHT22;7658;51.456;7.622;2022-10-16T07:36:38;14.40;99.90
15115;DHT22;7658;51.456;7.622;2022-10-16T07:39:04;14.50;99.90
15115;DHT22;7658;51.456;7.622;2022-10-16T07:41:30;14.50;99.90
15115;DHT22;7658;51.456;7.622;2022-10-16T07:43:58;14.60;99.90
15115;DHT22;7658;51.456;7.622;2022-10-16T07:46:26;14.60;99.90
15115;DHT22;7658;51.456;7.622;2022-10-16T07:48:52;14.60;99.90
15115;DHT22;7658;51.456;7.622;2022-10-16T07:51:20;14.70;99.90
15115;DHT22;7658;51.456;7.622;2022-10-16T07:53:46;14.70;99.90
15115;DHT22;7658;51.456;7.622;2022-10-16T07:56:13;14.90;99.90
15115;DHT22;7658;51.456;7.622;2022-10-16T07:58:39;14.90;99.90
15115;DHT22;7658;51.456;7.622;2022-10-16T08:01:07;14.80;99.90
15115;DHT22;7658;51.456;7.622;2022-10-16T08:03:33;14.70;99.90
15115;DHT22;7658;51.456;7.622;2022-10-16T08:05:59;14.70;99.90
15115;DHT22;7658;51.456;7.622;2022-10-16T08:08:26;14.70;99.90
15115;DHT22;7658;51.456;7.622;2022-10-16T08:10:52;14.60;99.90
15115;DHT22;7658;51.456;7.622;2022-10-16T08:13:18;14.60;99.90
15115;DHT22;7658;51.456;7.622;2022-10-16T08:15:44;14.60;99.90
15115;DHT22;7658;51.456;7.622;2022-10-16T08:18:12;14.70;99.90
15115;DHT22;7658;51.456;7.622;2022-10-16T08:20:40;15.00;99.90
15115;DHT22;7658;51.456;7.622;2022-10-16T08:23:07;15.30;99.90
15115;DHT22;7658;51.456;7.622;2022-10-16T08:25:35;15.50;99.90
15115;DHT22;7658;51.456;7.622;2022-10-16T08:28:04;15.70;99.90
15115;DHT22;7658;51.456;7.622;2022-10-16T08:30:30;15.90;99.90
15115;DHT22;7658;51.456;7.622;2022-10-16T08:32:56;16.10;99.90
15115;DHT22;7658;51.456;7.622;2022-10-16T08:35:23;16.30;99.90
15115;DHT22;7658;51.456;7.622;2022-10-16T08:37:49;16.40;99.90
15115;DHT22;7658;51.456;7.622;2022-10-16T08:40:26;16.40;99.90
15115;DHT22;7658;51.456;7.622;2022-10-16T08:45:24;16.60;99.90
15115;DHT22;7658;51.456;7.622;2022-10-16T08:48:17;16.70;99.90
15115;DHT22;7658;51.456;7.622;2022-10-16T08:50:45;16.80;99.90
15115;DHT22;7658;51.456;7.622;2022-10-16T08:53:21;16.90;99.90
15115;DHT22;7658;51.456;7.622;2022-10-16T08:55:51;16.90;99.90
15115;DHT22;7658;51.456;7.622;2022-10-16T08:58:28;16.90;99.90
15115;DHT22;7658;51.456;7.622;2022-10-16T09:00:59;17.00;99.90
15115;DHT22;7658;51.456;7.622;2022-10-16T09:04:21;17.10;99.90
15115;DHT22;7658;51.456;7.622;2022-10-16T09:19:44;17.10;99.90
15115;DHT22;7658;51.456;7.622;2022-10-16T09:22:16;17.10;99.90
15115;DHT22;7658;51.456;7.622;2022-10-16T09:24:43;17.10;99.90
15115;DHT22;7658;51.456;7.622;2022-10-16T09:27:12;17.00;99.90
15115;DHT22;7658;51.456;7.622;2022-10-16T09:29:39;17.00;99.90
15115;DHT22;7658;51.456;7.622;2022-10-16T09:32:15;17.00;99.90
15115;DHT22;7658;51.456;7.622;2022-10-16T09:34:49;17.00;99.90
15115;DHT22;7658;51.456;7.622;2022-10-16T09:37:18;17.00;99.90
15115;DHT22;7658;51.456;7.622;2022-10-16T09:39:54;17.00;99.90
15115;DHT22;7658;51.456;7.622;2022-10-16T09:42:36;17.00;99.90
15115;DHT22;7658;51.456;7.622;2022-10-16T09:45:03;16.90;99.90
15115;DHT22;7658;51.456;7.622;2022-10-16T09:47:30;16.80;99.90
15115;DHT22;7658;51.456;7.622;2022-10-16T09:49:59;16.80;99.90
15115;DHT22;7658;51.456;7.622;2022-10-16T09:52:28;17.00;99.90
15115;DHT22;7658;51.456;7.622;2022-10-16T09:54:59;17.00;99.90
15115;DHT22;7658;51.456;7.622;2022-10-16T09:57:26;17.10;99.90
15115;DHT22;7658;51.456;7.622;2022-10-16T09:59:56;17.10;99.90
15115;DHT22;7658;51.456;7.622;2022-10-16T10:02:34;17.10;99.90
15115;DHT22;7658;51.456;7.622;2022-10-16T10:05:01;17.10;99.90
15115;DHT22;7658;51.456;7.622;2022-10-16T10:07:33;17.10;99.90
15115;DHT22;7658;51.456;7.622;2022-10-16T10:10:03;17.00;99.90
15115;DHT22;7658;51.456;7.622;2022-10-16T10:12:30;16.90;99.90
15115;DHT22;7658;51.456;7.622;2022-10-16T10:15:07;16.80;99.90
15115;DHT22;7658;51.456;7.622;2022-10-16T10:17:50;16.70;99.90
15115;DHT22;7658;51.456;7.622;2022-10-16T10:22:51;16.80;99.90
15115;DHT22;7658;51.456;7.622;2022-10-16T10:31:11;16.80;99.90
15115;DHT22;7658;51.456;7.622;2022-10-16T10:33:57;17.00;99.90
15115;DHT22;7658;51.456;7.622;2022-10-16T10:39:00;17.60;99.90
15115;DHT22;7658;51.456;7.622;2022-10-16T10:46:35;18.10;99.90
15115;DHT22;7658;51.456;7.622;2022-10-16T10:52:08;18.40;99.90
15115;DHT22;7658;51.456;7.622;2022-10-16T11:00:06;18.00;99.90
15115;DHT22;7658;51.456;7.622;2022-10-16T11:02:41;17.90;99.90
15115;DHT22;7658;51.456;7.622;2022-10-16T11:10:29;18.00;99.90
15115;DHT22;7658;51.456;7.622;2022-10-16T11:15:48;18.30;99.90
15115;DHT22;7658;51.456;7.622;2022-10-16T11:18:23;18.50;99.90
15115;DHT22;7658;51.456;7.622;2022-10-16T11:21:11;18.80;99.90
15115;DHT22;7658;51.456;7.622;2022-10-16T11:26:30;19.00;99.90
15115;DHT22;7658;51.456;7.622;2022-10-16T11:29:00;19.20;99.90
15115;DHT22;7658;51.456;7.622;2022-10-16T11:39:31;19.50;99.90
15115;DHT22;7658;51.456;7.622;2022-10-16T11:47:35;19.80;99.90
15115;DHT22;7658;51.456;7.622;2022-10-16T11:50:25;19.60;99.90
15115;DHT22;7658;51.456;7.622;2022-10-16T11:55:42;19.40;99.90
15115;DHT22;7658;51.456;7.622;2022-10-16T12:06:31;19.90;99.90
15115;DHT22;7658;51.456;7.622;2022-10-16T12:09:00;19.80;99.90
15115;DHT22;7658;51.456;7.622;2022-10-16T12:14:07;19.50;99.90
15115;DHT22;7658;51.456;7.622;2022-10-16T12:16:33;19.80;99.90
15115;DHT22;7658;51.456;7.622;2022-10-16T12:19:16;19.80;99.90
15115;DHT22;7658;51.456;7.622;2022-10-16T12:21:43;19.90;99.90
15115;DHT22;7658;51.456;7.622;2022-10-16T12:24:38;20.10;99.90
15115;DHT22;7658;51.456;7.622;2022-10-16T12:27:25;20.30;99.90
15115;DHT22;7658;51.456;7.622;2022-10-16T12:29:58;20.40;99.90
15115;DHT22;7658;51.456;7.622;2022-10-16T12:32:38;20.40;99.90
15115;DHT22;7658;51.456;7.622;2022-10-16T12:35:06;20.20;99.90
15115;DHT22;7658;51.456;7.622;2022-10-16T12:37:41;20.40;99.90
15115;DHT22;7658;51.456;7.622;2022-10-16T12:40:30;20.20;99.90
15115;DHT22;7658;51.456;7.622;2022-10-16T12:42:56;20.00;99.90
15115;DHT22;7658;51.456;7.622;2022-10-16T12:45:33;20.10;99.90
15115;DHT22;7658;51.456;7.622;2022-10-16T12:48:01;20.40;99.90
15115;DHT22;7658;51.456;7.622;2022-10-16T12:50:29;20.60;99.90
15115;DHT22;7658;51.456;7.622;2022-10-16T12:53:00;20.20;99.90
15115;DHT22;7658;51.456;7.622;2022-10-16T12:55:26;19.90;99.90
15115;DHT22;7658;51.456;7.622;2022-10-16T13:19:36;20.10;99.90
15115;DHT22;7658;51.456;7.622;2022-10-16T13:27:46;19.90;99.90
15115;DHT22;7658;51.456;7.622;2022-10-16T13:30:26;19.90;99.90
15115;DHT22;7658;51.456;7.622;2022-10-16T13:33:33;19.80;99.90
15115;DHT22;7658;51.456;7.622;2022-10-16T13:35:54;19.80;99.90
15115;DHT22;7658;51.456;7.622;2022-10-16T13:38:27;19.80;99.90
15115;DHT22;7658;51.456;7.622;2022-10-16T13:43:29;19.80;99.90
15115;DHT22;7658;51.456;7.622;2022-10-16T13:46:18;19.70;99.90
15115;DHT22;7658;51.456;7.622;2022-10-16T13:48:44;19.50;99.90
15115;DHT22;7658;51.456;7.622;2022-10-16T13:51:17;19.30;99.90
15115;DHT22;7658;51.456;7.622;2022-10-16T13:53:45;19.20;99.90
15115;DHT22;7658;51.456;7.622;2022-10-16T13:56:17;19.20;99.90
15115;DHT22;7658;51.456;7.622;2022-10-16T13:58:44;19.20;99.90
15115;DHT22;7658;51.456;7.622;2022-10-16T14:01:29;19.30;99.90
15115;DHT22;7658;51.456;7.622;2022-10-16T14:04:02;19.40;99.90
15115;DHT22;7658;51.456;7.622;2022-10-16T14:06:28;19.60;99.90
15115;DHT22;7658;51.456;7.622;2022-10-16T14:11:25;19.40;99.90
15115;DHT22;7658;51.456;7.622;2022-10-16T14:13:52;19.20;99.90
15115;DHT22;7658;51.456;7.622;2022-10-16T14:16:21;19.10;99.90
15115;DHT22;7658;51.456;7.622;2022-10-16T14:19:02;19.00;99.90
15115;DHT22;7658;51.456;7.622;2022-10-16T14:21:29;19.00;99.90
15115;DHT22;7658;51.456;7.622;2022-10-16T14:23:55;18.90;99.90
15115;DHT22;7658;51.456;7.622;2022-10-16T14:26:27;18.90;99.90
15115;DHT22;7658;51.456;7.622;2022-10-16T14:29:12;18.80;99.90
15115;DHT22;7658;51.456;7.622;2022-10-16T14:31:38;18.80;99.90
15115;DHT22;7658;51.456;7.622;2022-10-16T14:34:32;18.70;99.90
15115;DHT22;7658;51.456;7.622;2022-10-16T14:37:27;18.80;99.90
15115;DHT22;7658;51.456;7.622;2022-10-16T14:39:54;19.00;99.90
15115;DHT22;7658;51.456;7.622;2022-10-16T14:42:23;19.00;99.90
15115;DHT22;7658;51.456;7.622;2022-10-16T14:44:53;19.00;99.90
15115;DHT22;7658;51.456;7.622;2022-10-16T14:47:24;18.80;99.90
15115;DHT22;7658;51.456;7.622;2022-10-16T14:49:52;18.60;99.90
15115;DHT22;7658;51.456;7.622;2022-10-16T14:52:20;18.50;99.90
15115;DHT22;7658;51.456;7.622;2022-10-16T14:54:49;18.50;99.90
15115;DHT22;7658;51.456;7.622;2022-10-16T14:57:20;18.40;99.90
15115;DHT22;7658;51.456;7.622;2022-10-16T14:59:47;18.30;99.90
15115;DHT22;7658;51.456;7.622;2022-10-16T15:02:32;18.30;99.90
15115;DHT22;7658;51.456;7.622;2022-10-16T15:05:10;18.30;99.90
15115;DHT22;7658;51.456;7.622;2022-10-16T15:07:37;18.20;99.90
15115;DHT22;7658;51.456;7.622;2022-10-16T15:10:03;18.20;99.90
15115;DHT22;7658;51.456;7.622;2022-10-16T15:12:28;18.20;99.90
15115;DHT22;7658;51.456;7.622;2022-10-16T15:14:54;18.20;99.90
15115;DHT22;7658;51.456;7.622;2022-10-16T15:17:20;18.10;99.90
15115;DHT22;7658;51.456;7.622;2022-10-16T15:19:45;18.00;99.90
15115;DHT22;7658;51.456;7.622;2022-10-16T15:22:11;18.00;99.90
15115;DHT22;7658;51.456;7.622;2022-10-16T15:24:37;18.00;99.90
15115;DHT22;7658;51.456;7.622;2022-10-16T15:27:04;17.90;99.90
15115;DHT22;7658;51.456;7.622;2022-10-16T15:29:29;17.90;99.90
15115;DHT22;7658;51.456;7.622;2022-10-16T15:31:56;17.80;99.90
15115;DHT22;7658;51.456;7.622;2022-10-16T15:34:22;17.70;99.90
15115;DHT22;7658;51.456;7.622;2022-10-16T15:36:48;17.70;99.90
15115;DHT22;7658;51.456;7.622;2022-10-16T15:39:16;17.60;99.90
15115;DHT22;7658;51.456;7.622;2022-10-16T15:41:42;17.60;99.90
15115;DHT22;7658;51.456;7.622;2022-10-16T15:44:08;17.60;99.90
15115;DHT22;7658;51.456;7.622;2022-10-16T15:46:34;17.50;99.90
15115;DHT22;7658;51.456;7.622;2022-10-16T15:49:01;17.50;99.90
15115;DHT22;7658;51.456;7.622;2022-10-16T15:51:27;17.50;99.90
15115;DHT22;7658;51.456;7.622;2022-10-16T15:53:56;17.50;99.90
15115;DHT22;7658;51.456;7.622;2022-10-16T15:56:23;17.50;99.90
15115;DHT22;7658;51.456;7.622;2022-10-16T15:58:52;17.50;99.90
15115;DHT22;7658;51.456;7.622;2022-10-16T16:01:21;17.40;99.90
15115;DHT22;7658;51.456;7.622;2022-10-16T16:03:47;17.40;99.90
15115;DHT22;7658;51.456;7.622;2022-10-16T16:06:13;17.30;99.90
15115;DHT22;7658;51.456;7.622;2022-10-16T16:08:39;17.30;99.90
15115;DHT22;7658;51.456;7.622;2022-10-16T16:11:11;17.20;99.90
15115;DHT22;7658;51.456;7.622;2022-10-16T16:13:38;17.20;99.90
15115;DHT22;7658;51.456;7.622;2022-10-16T16:16:09;17.10;99.90
15115;DHT22;7658;51.456;7.622;2022-10-16T16:18:35;17.10;99.90
15115;DHT22;7658;51.456;7.622;2022-10-16T16:21:01;17.00;99.90
15115;DHT22;7658;51.456;7.622;2022-10-16T16:23:27;17.00;99.90
15115;DHT22;7658;51.456;7.622;2022-10-16T16:26:07;17.00;99.90
15115;DHT22;7658;51.456;7.622;2022-10-16T16:28:35;17.00;99.90
15115;DHT22;7658;51.456;7.622;2022-10-16T16:31:01;16.90;99.90
15115;DHT22;7658;51.456;7.622;2022-10-16T16:33:27;16.90;99.90
15115;DHT22;7658;51.456;7.622;2022-10-16T16:36:00;16.90;99.90
15115;DHT22;7658;51.456;7.622;2022-10-16T16:38:26;16.80;99.90
15115;DHT22;7658;51.456;7.622;2022-10-16T16:40:52;16.80;99.90
15115;DHT22;7658;51.456;7.622;2022-10-16T16:43:19;16.70;99.90
15115;DHT22;7658;51.456;7.622;2022-10-16T16:45:44;16.70;99.90
15115;DHT22;7658;51.456;7.622;2022-10-16T16:48:10;16.70;99.90
15115;DHT22;7658;51.456;7.622;2022-10-16T16:50:36;16.60;99.90
15115;DHT22;7658;51.456;7.622;2022-10-16T16:53:02;16.60;99.90
15115;DHT22;7658;51.456;7.622;2022-10-16T16:55:28;16.50;99.90
15115;DHT22;7658;51.456;7.622;2022-10-16T16:57:54;16.50;99.90
15115;DHT22;7658;51.456;7.622;2022-10-16T17:00:20;16.50;99.90
15115;DHT22;7658;51.456;7.622;2022-10-16T17:02:49;16.50;99.90
15115;DHT22;7658;51.456;7.622;2022-10-16T17:05:15;16.50;99.90
15115;DHT22;7658;51.456;7.622;2022-10-16T17:07:41;16.40;99.90
15115;DHT22;7658;51.456;7.622;2022-10-16T17:10:07;16.40;99.90
15115;DHT22;7658;51.456;7.622;2022-10-16T17:12:33;16.40;99.90
15115;DHT22;7658;51.456;7.622;2022-10-16T17:14:59;16.40;99.90
15115;DHT22;7658;51.456;7.622;2022-10-16T17:17:25;16.30;99.90
15115;DHT22;7658;51.456;7.622;2022-10-16T17:19:51;16.30;99.90
15115;DHT22;7658;51.456;7.622;2022-10-16T17:22:18;16.30;99.90
15115;DHT22;7658;51.456;7.622;2022-10-16T17:24:43;16.20;99.90
15115;DHT22;7658;51.456;7.622;2022-10-16T17:27:09;16.20;99.90
15115;DHT22;7658;51.456;7.622;2022-10-16T17:29:37;16.20;99.90
15115;DHT22;7658;51.456;7.622;2022-10-16T17:32:03;16.20;99.90
15115;DHT22;7658;51.456;7.622;2022-10-16T17:34:29;16.20;99.90
15115;DHT22;7658;51.456;7.622;2022-10-16T17:36:54;16.10;99.90
15115;DHT22;7658;51.456;7.622;2022-10-16T17:39:21;16.10;99.90
15115;DHT22;7658;51.456;7.622;2022-10-16T17:41:47;16.10;99.90
15115;DHT22;7658;51.456;7.622;2022-10-16T17:44:13;16.10;99.90
15115;DHT22;7658;51.456;7.622;2022-10-16T17:46:47;16.10;99.90
15115;DHT22;7658;51.456;7.622;2022-10-16T17:49:13;16.10;99.90
15115;DHT22;7658;51.456;7.622;2022-10-16T17:51:39;16.10;99.90
15115;DHT22;7658;51.456;7.622;2022-10-16T17:54:06;16.00;99.90
15115;DHT22;7658;51.456;7.622;2022-10-16T17:56:31;16.00;99.90
15115;DHT22;7658;51.456;7.622;2022-10-16T17:59:00;16.00;99.90